Time;durP1;ratioP1;P1;durP2;ratioP2;P2;SDS_P1;SDS_P2;PMS_P1;PMS_P2;Temp;Humidity;BMP_temperature;BMP_pressure;BME280_temperature;BME280_humidity;BME280_pressure;Samples;Min_cycle;Max_cycle;Signal;HPM_P1;HPM_P2
2023/07/26 00:02:05;;;;;;;2.40;2.30;;;17.90;99.90;;;18.13;70.31;101022.53;5048676;28;20049;-63
2023/07/26 00:04:34;;;;;;;2.58;2.47;;;17.80;99.90;;;17.92;70.31;101010.72;5052315;28;20049;-64
2023/07/26 00:07:02;;;;;;;2.45;2.35;;;17.50;99.90;;;17.83;70.56;101015.47;5052307;28;20083;-64
2023/07/26 00:09:30;;;;;;;2.78;2.67;;;17.40;99.90;;;17.87;70.88;101017.13;5052307;28;20091;-64
2023/07/26 00:11:59;;;;;;;2.70;2.60;;;17.40;99.90;;;17.82;71.28;101009.28;5052265;28;20076;-64
2023/07/26 00:14:29;;;;;;;2.83;2.72;;;17.40;99.90;;;17.76;71.06;101011.25;5052324;28;20095;-63
2023/07/26 00:16:57;;;;;;;2.35;2.25;;;17.40;99.90;;;17.75;70.55;101009.53;5052311;28;20501;-63
2023/07/26 00:19:26;;;;;;;2.95;2.85;;;17.30;99.90;;;17.69;71.64;101007.88;5052583;28;20047;-63
2023/07/26 00:21:54;;;;;;;3.00;2.90;;;17.30;99.90;;;17.65;73.30;101011.59;5052260;28;20045;-63
2023/07/26 00:24:23;;;;;;;2.72;2.63;;;17.20;99.90;;;17.63;74.15;101007.22;5048293;28;20041;-63
2023/07/26 00:26:51;;;;;;;2.42;2.33;;;17.20;99.90;;;17.54;73.43;101004.81;5048551;28;20045;-63
2023/07/26 00:29:19;;;;;;;2.95;2.85;;;17.10;99.90;;;17.57;72.42;100999.38;5052119;28;20056;-63
2023/07/26 00:31:49;;;;;;;2.88;2.78;;;17.10;99.90;;;17.56;72.03;101003.84;5052374;28;20052;-63
2023/07/26 00:34:18;;;;;;;2.97;2.88;;;17.10;99.90;;;17.53;71.88;101000.41;5052201;28;20055;-63
2023/07/26 00:36:46;;;;;;;2.58;2.47;;;17.10;99.90;;;17.46;72.10;101005.00;5049437;28;20045;-63
2023/07/26 00:39:15;;;;;;;2.85;2.75;;;17.00;99.90;;;17.49;72.34;100998.75;5067728;28;20482;-63
2023/07/26 00:41:43;;;;;;;2.70;2.60;;;17.00;99.90;;;17.41;72.96;100998.06;5052319;28;20136;-63
2023/07/26 00:44:12;;;;;;;2.83;2.72;;;17.00;99.90;;;17.43;73.53;101001.56;5051994;28;20044;-63
2023/07/26 00:46:41;;;;;;;2.50;2.40;;;17.00;99.90;;;17.44;73.18;101000.66;5051908;28;20103;-63
2023/07/26 00:49:11;;;;;;;2.83;2.72;;;17.00;99.90;;;17.44;72.94;101000.66;5048012;28;20199;-63
2023/07/26 00:51:39;;;;;;;2.70;2.60;;;17.00;99.90;;;17.47;72.75;101000.56;5039556;28;20128;-63
2023/07/26 00:54:10;;;;;;;2.70;2.60;;;17.00;99.90;;;17.43;72.91;100997.09;5067674;28;20135;-63
2023/07/26 00:56:38;;;;;;;2.53;2.42;;;17.00;99.90;;;17.46;73.57;100998.81;5052100;28;20429;-63
2023/07/26 00:59:07;;;;;;;2.50;2.40;;;17.00;99.90;;;17.25;73.67;100956.69;5052093;28;20049;-63
2023/07/26 01:01:36;;;;;;;2.90;2.80;;;17.10;99.90;;;17.45;73.40;100997.03;5052061;28;20087;-63
2023/07/26 01:04:04;;;;;;;2.90;2.80;;;17.00;99.90;;;17.38;73.71;100992.81;5050364;28;20052;-63
2023/07/26 01:06:43;;;;;;;2.80;2.70;;;17.00;99.90;;;17.33;73.69;100981.38;5051817;28;20091;-63
2023/07/26 01:09:23;;;;;;;2.90;2.80;;;17.00;99.90;;;17.43;74.60;100994.44;5051217;28;20049;-64
2023/07/26 01:12:03;;;;;;;2.50;2.40;;;17.00;99.90;;;17.37;75.74;100999.06;5055725;28;20395;-64
2023/07/26 01:14:38;;;;;;;2.90;2.80;;;16.90;99.90;;;17.35;75.82;100991.09;5070733;28;20049;-65
2023/07/26 01:17:09;;;;;;;2.65;2.55;;;16.90;99.90;;;17.32;76.16;100988.53;5055295;28;20437;-63
2023/07/26 01:19:38;;;;;;;2.90;2.80;;;16.90;99.90;;;17.28;76.66;100984.19;5055523;28;20120;-63
2023/07/26 01:22:08;;;;;;;3.20;3.10;;;16.90;99.90;;;17.32;77.24;100984.97;5054163;28;20098;-63
2023/07/26 01:24:36;;;;;;;2.57;2.47;;;16.90;99.90;;;17.26;77.44;100985.16;5050314;28;20399;-63
2023/07/26 01:27:05;;;;;;;3.03;2.92;;;16.80;99.90;;;17.17;76.27;100980.94;5051685;28;20320;-63
2023/07/26 01:29:34;;;;;;;2.80;2.70;;;16.70;99.90;;;17.15;77.04;100981.00;5054962;28;20056;-63
2023/07/26 01:32:03;;;;;;;2.88;2.78;;;16.70;99.90;;;17.17;78.14;100986.28;5053899;28;20080;-63
2023/07/26 01:34:35;;;;;;;2.70;2.60;;;16.70;99.90;;;17.06;77.34;100980.38;5052621;28;20053;-63
2023/07/26 01:37:04;;;;;;;2.80;2.70;;;16.60;99.90;;;17.02;76.98;100976.06;5055122;28;20045;-63
2023/07/26 01:39:34;;;;;;;2.75;2.65;;;16.50;99.90;;;17.10;78.45;100976.72;5054763;28;20502;-63
2023/07/26 01:42:04;;;;;;;2.70;2.60;;;16.60;99.90;;;17.07;78.55;100971.47;5053208;28;20052;-63
2023/07/26 01:44:37;;;;;;;3.30;3.20;;;16.60;99.90;;;16.74;78.33;100946.56;5051268;28;20410;-63
2023/07/26 01:47:05;;;;;;;2.80;2.70;;;16.50;99.90;;;16.98;78.38;100975.28;5054714;28;20140;-63
2023/07/26 01:49:34;;;;;;;2.60;2.50;;;16.50;99.90;;;16.86;77.80;100978.28;5054865;28;20045;-63
2023/07/26 01:52:03;;;;;;;2.95;2.85;;;16.40;99.90;;;16.84;77.47;100974.78;5054828;28;20049;-63
2023/07/26 01:54:33;;;;;;;3.17;3.08;;;16.40;99.90;;;16.82;77.60;100973.94;5052599;28;20057;-63
2023/07/26 01:57:01;;;;;;;2.92;2.83;;;16.40;99.90;;;16.77;77.71;100973.22;5054677;28;20087;-64
2023/07/26 01:59:29;;;;;;;2.90;2.80;;;16.30;99.90;;;16.69;77.52;100969.88;5053464;28;20059;-64
2023/07/26 02:01:58;;;;;;;2.72;2.63;;;16.20;99.90;;;16.66;77.60;100978.00;5066920;28;20041;-64
2023/07/26 02:04:26;;;;;;;2.92;2.83;;;16.20;99.90;;;16.72;77.29;100972.47;5066199;28;20053;-63
2023/07/26 02:06:55;;;;;;;3.10;3.00;;;16.20;99.90;;;16.70;77.07;100971.66;5061954;28;20048;-63
2023/07/26 02:09:23;;;;;;;2.60;2.50;;;16.30;99.90;;;16.72;76.79;100976.94;5050843;28;20473;-63
2023/07/26 02:11:53;;;;;;;2.70;2.60;;;16.30;99.90;;;16.71;76.68;100978.72;5054512;28;20406;-63
2023/07/26 02:14:21;;;;;;;2.95;2.85;;;16.30;99.90;;;16.75;76.99;100982.19;5053153;28;20045;-63
2023/07/26 02:16:50;;;;;;;3.25;3.15;;;16.30;99.90;;;16.73;76.82;100973.34;5054401;28;20072;-63
2023/07/26 02:19:18;;;;;;;3.10;3.00;;;16.30;99.90;;;16.67;76.66;100979.72;5051803;28;20041;-63
2023/07/26 02:21:47;;;;;;;3.10;3.00;;;16.20;99.90;;;16.72;76.72;100977.81;5052945;28;20394;-63
2023/07/26 02:24:15;;;;;;;2.65;2.55;;;16.30;99.90;;;16.76;76.36;100967.91;5069680;28;20049;-63
2023/07/26 02:26:44;;;;;;;2.78;2.67;;;16.30;99.90;;;16.77;76.42;100975.88;5054185;28;20072;-63
2023/07/26 02:29:14;;;;;;;2.95;2.85;;;16.40;99.90;;;16.84;76.73;100972.09;5065730;28;20064;-63
2023/07/26 02:31:42;;;;;;;2.65;2.55;;;16.40;99.90;;;16.92;76.61;100975.44;5052976;28;20071;-63
2023/07/26 02:34:11;;;;;;;2.88;2.78;;;16.50;99.90;;;16.96;75.68;100970.88;5050512;28;20061;-63
2023/07/26 02:36:41;;;;;;;;;;;16.60;99.90;;;16.89;75.51;100963.97;5069970;28;20438;-63
2023/07/26 02:39:10;;;;;;;2.80;2.70;;;16.50;99.90;;;16.92;75.50;100975.44;5052615;28;19924;-63
2023/07/26 02:41:38;;;;;;;2.70;2.60;;;16.50;99.90;;;16.91;75.39;100980.84;5053540;28;20119;-63
2023/07/26 02:44:07;;;;;;;3.00;2.90;;;16.50;99.90;;;16.92;75.39;100963.88;5052569;28;20490;-63
2023/07/26 02:46:37;;;;;;;2.92;2.83;;;16.50;99.90;;;16.97;75.36;100970.88;5053495;28;20052;-63
2023/07/26 02:49:05;;;;;;;2.70;2.60;;;16.50;99.90;;;17.14;74.99;100971.25;5053777;28;20079;-63
2023/07/26 02:51:34;;;;;;;3.17;3.08;;;16.70;99.90;;;17.21;74.22;100973.75;5049991;28;20108;-63
2023/07/26 02:54:03;;;;;;;2.70;2.60;;;16.80;99.90;;;17.21;74.00;100977.25;5052411;28;20049;-63
2023/07/26 02:56:31;;;;;;;3.13;3.03;;;16.80;99.90;;;17.30;73.85;100971.66;5050075;28;20494;-63
2023/07/26 02:58:59;;;;;;;2.83;2.72;;;16.90;99.90;;;17.36;74.07;100976.81;5053467;28;20037;-63
2023/07/26 03:01:28;;;;;;;2.80;2.70;;;17.00;99.90;;;17.40;74.96;100970.44;5053491;28;20094;-63
2023/07/26 03:03:58;;;;;;;3.15;3.05;;;17.00;99.90;;;17.30;75.53;100970.78;5053444;28;20044;-63
2023/07/26 03:06:27;;;;;;;2.95;2.85;;;16.90;99.90;;;16.63;75.73;100860.53;5053708;28;20429;-64
2023/07/26 03:08:55;;;;;;;2.70;2.60;;;16.90;99.90;;;17.30;76.34;100971.66;5053185;28;20121;-64
2023/07/26 03:11:25;;;;;;;2.72;2.63;;;16.90;99.90;;;17.33;77.66;100970.66;5052160;28;20036;-63
2023/07/26 03:13:55;;;;;;;2.95;2.85;;;16.80;99.90;;;17.28;78.30;100972.63;5053382;28;20051;-63
2023/07/26 03:16:24;;;;;;;2.70;2.60;;;16.80;99.90;;;17.19;78.53;100971.09;5053112;28;20049;-64
2023/07/26 03:18:52;;;;;;;2.83;2.72;;;16.70;99.90;;;17.22;79.18;100968.34;5053165;28;20041;-63
2023/07/26 03:21:22;;;;;;;2.78;2.67;;;16.70;99.90;;;17.22;79.34;100973.69;5052214;28;20122;-64
2023/07/26 03:23:51;;;;;;;2.90;2.80;;;16.70;99.90;;;17.15;79.34;100970.31;5053136;28;20057;-64
2023/07/26 03:26:20;;;;;;;2.60;2.50;;;16.70;99.90;;;17.10;79.12;100974.03;5052817;28;20072;-63
2023/07/26 03:28:48;;;;;;;3.00;2.90;;;16.70;99.90;;;17.17;79.46;100980.09;5053037;28;20045;-64
2023/07/26 03:31:16;;;;;;;2.90;2.80;;;16.70;99.90;;;17.18;79.88;100974.69;5052719;28;20487;-64
2023/07/26 03:33:45;;;;;;;3.08;2.97;;;16.70;99.90;;;17.09;79.15;100970.47;5052733;28;20598;-63
2023/07/26 03:36:13;;;;;;;2.90;2.80;;;16.60;99.90;;;17.05;77.89;100960.78;5048859;28;20037;-64
2023/07/26 03:38:43;;;;;;;2.78;2.67;;;16.60;99.90;;;17.17;77.17;100980.09;5052792;28;20045;-64
2023/07/26 03:41:14;;;;;;;3.10;3.00;;;16.70;99.90;;;17.13;77.46;100971.25;5049486;28;20081;-64
2023/07/26 03:43:43;;;;;;;2.80;2.70;;;16.70;99.90;;;17.20;77.58;100972.84;5052853;28;20120;-63
2023/07/26 03:46:11;;;;;;;2.90;2.80;;;16.70;99.90;;;17.17;77.91;100971.13;5051375;28;20075;-67
2023/07/26 03:48:39;;;;;;;2.72;2.63;;;16.70;99.90;;;17.11;78.48;100965.97;5053026;28;20067;-64
2023/07/26 03:51:08;;;;;;;3.20;3.10;;;16.70;99.90;;;17.12;79.22;100959.72;5052512;28;20077;-63
2023/07/26 03:53:36;;;;;;;3.35;3.25;;;16.70;99.90;;;17.08;78.41;100959.84;5051626;28;20080;-64
2023/07/26 03:56:06;;;;;;;2.80;2.70;;;16.60;99.90;;;17.10;78.24;100958.88;5052496;28;20041;-65
2023/07/26 03:58:35;;;;;;;3.03;2.92;;;16.60;99.90;;;17.15;77.61;100956.94;5047664;28;20483;-63
2023/07/26 04:01:03;;;;;;;2.97;2.88;;;16.70;99.90;;;17.22;77.46;100962.09;5052655;28;20055;-63
2023/07/26 04:03:32;;;;;;;2.75;2.65;;;16.80;99.90;;;17.15;77.67;100951.59;5052360;28;20447;-63
2023/07/26 04:06:01;;;;;;;2.75;2.65;;;16.70;99.90;;;17.24;77.31;100946.91;5051400;28;20118;-63
2023/07/26 04:08:29;;;;;;;2.85;2.75;;;16.80;99.90;;;17.24;77.08;100957.59;5049861;28;20045;-63
2023/07/26 04:11:02;;;;;;;2.70;2.60;;;16.80;99.90;;;17.26;76.95;100964.66;5052506;28;20197;-63
2023/07/26 04:13:32;;;;;;;2.88;2.78;;;16.90;99.90;;;17.27;76.93;100955.69;5052380;28;20053;-63
2023/07/26 04:16:01;;;;;;;3.40;3.30;;;16.90;99.90;;;17.22;77.18;100960.31;5052317;28;20123;-63
2023/07/26 04:18:29;;;;;;;3.00;2.90;;;16.90;99.90;;;17.31;76.98;100961.81;5048529;28;20041;-64
2023/07/26 04:20:57;;;;;;;3.00;2.90;;;17.00;99.90;;;17.40;76.43;100962.41;5051586;28;20055;-63
2023/07/26 04:23:26;;;;;;;2.80;2.70;;;17.00;99.90;;;17.51;76.18;100963.00;5052169;28;20099;-63
2023/07/26 04:25:54;;;;;;;3.00;2.90;;;17.20;99.90;;;17.63;75.81;100962.63;5052237;28;20063;-63
2023/07/26 04:28:23;;;;;;;3.03;2.92;;;17.30;99.90;;;17.70;75.55;100961.50;5049241;28;20084;-63
2023/07/26 04:30:52;;;;;;;3.13;3.03;;;17.30;99.90;;;17.79;75.36;100965.66;5052438;28;20037;-63
2023/07/26 04:33:22;;;;;;;2.80;2.70;;;17.40;99.90;;;17.80;75.19;100951.38;5052406;28;20397;-63
2023/07/26 04:35:51;;;;;;;3.05;2.95;;;17.50;99.90;;;17.88;75.28;100960.03;5052488;28;20052;-63
2023/07/26 04:38:20;;;;;;;2.97;2.88;;;17.50;99.90;;;17.88;75.25;100960.03;5052020;28;20045;-63
2023/07/26 04:40:48;;;;;;;2.83;2.72;;;17.60;99.90;;;17.95;75.05;100956.22;5048147;28;20106;-63
2023/07/26 04:43:19;;;;;;;3.03;2.92;;;17.60;99.90;;;17.94;74.85;100959.84;5054058;28;20052;-63
2023/07/26 04:45:48;;;;;;;3.08;2.97;;;17.60;99.90;;;17.96;75.15;100961.50;5055976;28;20036;-63
2023/07/26 04:48:19;;;;;;;3.15;3.05;;;17.60;99.90;;;18.00;74.94;100959.63;5055798;28;20099;-63
2023/07/26 04:50:50;;;;;;;3.10;3.00;;;17.60;99.90;;;17.83;74.90;100930.72;5055961;28;20135;-63
2023/07/26 04:53:18;;;;;;;3.28;3.17;;;17.70;99.90;;;18.12;74.71;100969.91;5055752;28;20045;-63
2023/07/26 04:55:50;;;;;;;3.38;3.28;;;17.70;99.90;;;17.62;74.51;100875.25;5055661;28;20045;-63
2023/07/26 04:58:19;;;;;;;2.90;2.80;;;17.80;99.90;;;18.22;74.64;100976.72;5052547;28;20053;-63
2023/07/26 05:00:48;;;;;;;3.20;3.10;;;17.80;99.90;;;18.27;74.84;100984.59;5055538;28;20041;-63
2023/07/26 05:03:18;;;;;;;4.18;3.97;;;17.90;99.90;;;18.34;75.24;100978.09;5055936;28;20055;-63
2023/07/26 05:05:50;;;;;;;5.38;5.07;;;17.90;99.90;;;18.39;75.29;100968.97;5055460;28;20110;-63
2023/07/26 05:08:20;;;;;;;2.78;2.67;;;18.00;99.90;;;18.46;75.33;100981.28;5055745;28;20390;-63
2023/07/26 05:10:51;;;;;;;3.17;3.08;;;18.10;99.90;;;18.54;75.46;100981.00;5055775;28;20045;-63
2023/07/26 05:13:19;;;;;;;3.08;2.97;;;18.20;99.90;;;18.53;75.85;100977.44;5055765;28;20053;-63
2023/07/26 05:15:48;;;;;;;2.85;2.75;;;18.20;99.90;;;18.53;76.09;100977.44;5051632;28;20456;-63
2023/07/26 05:18:17;;;;;;;2.97;2.88;;;18.20;99.90;;;18.54;76.29;100978.31;5055260;28;20045;-63
2023/07/26 05:20:46;;;;;;;2.80;2.70;;;18.20;99.90;;;18.55;76.48;100986.28;5055103;28;20490;-63
2023/07/26 05:23:14;;;;;;;2.78;2.67;;;18.20;99.90;;;18.59;76.47;100979.91;5055166;28;20331;-64
2023/07/26 05:25:42;;;;;;;3.20;3.10;;;18.20;99.90;;;18.64;76.63;100985.09;5055097;28;20040;-63
2023/07/26 05:28:11;;;;;;;2.83;2.72;;;18.30;99.90;;;18.66;76.34;100984.09;5055017;28;20041;-63
2023/07/26 05:30:39;;;;;;;2.80;2.70;;;18.30;99.90;;;18.70;76.29;100990.22;5053410;28;20069;-63
2023/07/26 05:33:09;;;;;;;2.60;2.50;;;18.40;99.90;;;18.69;76.21;100988.47;5055317;28;20171;-63
2023/07/26 05:35:39;;;;;;;2.70;2.60;;;18.30;99.90;;;18.65;76.48;100998.44;5055469;28;20063;-63
2023/07/26 05:38:08;;;;;;;2.80;2.70;;;18.30;99.90;;;18.67;76.16;100999.28;5050215;28;20800;-64
2023/07/26 05:40:37;;;;;;;2.80;2.70;;;18.30;99.90;;;18.68;75.96;101017.06;5053509;28;20048;-63
2023/07/26 05:43:05;;;;;;;2.72;2.63;;;18.30;99.90;;;18.66;75.70;101010.91;5051665;28;20096;-64
2023/07/26 05:45:34;;;;;;;2.75;2.65;;;18.30;99.90;;;18.64;75.61;101020.78;5055249;28;20135;-64
2023/07/26 05:48:02;;;;;;;2.88;2.78;;;18.30;99.90;;;18.63;75.10;101021.75;5054773;28;20490;-64
2023/07/26 05:50:31;;;;;;;3.05;2.95;;;18.30;99.90;;;18.63;74.80;101032.47;5054667;28;20098;-64
2023/07/26 05:53:01;;;;;;;2.88;2.78;;;18.20;99.90;;;18.61;74.81;101036.09;5054281;28;20052;-64
2023/07/26 05:55:29;;;;;;;3.00;2.90;;;18.20;99.90;;;18.59;74.82;101033.50;5054511;28;20076;-64
2023/07/26 05:57:58;;;;;;;2.65;2.55;;;18.20;99.90;;;18.60;74.51;101029.00;5053508;28;20475;-64
2023/07/26 06:00:27;;;;;;;2.97;2.88;;;18.20;99.90;;;18.61;74.56;101033.44;5050424;28;20044;-64
2023/07/26 06:02:55;;;;;;;2.53;2.42;;;18.20;99.90;;;18.60;74.22;101042.41;5054675;28;20495;-64
2023/07/26 06:05:24;;;;;;;2.75;2.65;;;18.20;99.90;;;18.65;74.11;101060.06;5054336;28;20052;-64
2023/07/26 06:07:52;;;;;;;2.80;2.70;;;18.20;99.90;;;18.69;74.28;101045.66;5054782;28;20055;-65
2023/07/26 06:10:22;;;;;;;3.00;2.90;;;18.30;99.90;;;18.67;74.94;101043.94;5054153;28;20056;-65
2023/07/26 06:12:51;;;;;;;2.85;2.75;;;18.30;99.90;;;18.74;74.74;101054.38;5054222;28;20056;-65
2023/07/26 06:15:20;;;;;;;2.85;2.75;;;18.40;99.90;;;18.81;75.21;101053.22;5054345;28;20442;-65
2023/07/26 06:17:48;;;;;;;3.00;2.90;;;18.40;99.90;;;18.80;76.78;101059.53;5054050;28;20102;-65
2023/07/26 06:20:17;;;;;;;3.00;2.90;;;18.40;99.90;;;18.84;77.43;101054.94;5053954;28;20067;-66
2023/07/26 06:22:47;;;;;;;2.72;2.63;;;18.40;99.90;;;18.83;79.50;101050.53;5054096;28;20398;-65
2023/07/26 06:25:15;;;;;;;2.90;2.80;;;18.40;99.90;;;18.96;78.73;101064.34;5054290;28;20051;-65
2023/07/26 06:27:45;;;;;;;3.47;3.17;;;18.50;99.90;;;19.12;78.46;101057.53;5054084;28;20484;-67
2023/07/26 06:30:15;;;;;;;2.70;2.60;;;18.70;99.90;;;19.14;75.07;101063.69;5067440;28;20046;-65
2023/07/26 06:32:44;;;;;;;3.03;2.92;;;18.80;99.90;;;19.02;75.22;101056.09;5054378;28;20044;-64
2023/07/26 06:35:12;;;;;;;2.83;2.72;;;18.70;99.90;;;19.08;76.37;101056.75;5052850;28;20553;-64
2023/07/26 06:37:40;;;;;;;4.88;3.25;;;18.70;99.90;;;18.97;75.53;101036.63;5053678;28;20048;-67
2023/07/26 06:40:11;;;;;;;3.70;3.50;;;18.70;99.90;;;19.11;74.43;101061.13;5052777;28;20077;-62
2023/07/26 06:42:39;;;;;;;3.30;3.10;;;18.80;99.90;;;19.16;73.66;101067.22;5053993;28;20434;-62
2023/07/26 06:45:10;;;;;;;3.10;3.00;;;18.80;99.90;;;19.17;74.23;101063.56;5049710;28;20127;-62
2023/07/26 06:47:39;;;;;;;2.58;2.47;;;18.80;99.90;;;19.27;75.50;101070.38;5053543;28;20045;-62
2023/07/26 06:50:08;;;;;;;3.20;3.10;;;18.80;99.90;;;19.19;74.91;101080.50;5053459;28;20135;-62
2023/07/26 06:52:37;;;;;;;2.97;2.87;;;18.90;99.90;;;19.29;74.60;101079.22;5052456;28;20049;-62
2023/07/26 06:55:06;;;;;;;2.70;2.60;;;18.90;99.90;;;19.14;74.85;101072.63;5053185;28;20053;-61
2023/07/26 06:57:35;;;;;;;3.05;2.95;;;18.80;99.90;;;19.18;74.54;101078.75;5053913;28;20126;-62
2023/07/26 07:00:06;;;;;;;3.85;3.63;;;18.90;99.90;;;19.45;73.30;101077.78;5051835;28;20048;-62
2023/07/26 07:02:36;;;;;;;4.72;3.17;;;19.10;99.90;;;19.44;73.22;101076.88;5053514;28;20114;-63
2023/07/26 07:05:05;;;;;;;4.90;4.57;;;19.20;99.90;;;19.45;72.15;101072.41;5049618;28;20083;-64
2023/07/26 07:07:34;;;;;;;3.80;3.58;;;19.20;99.90;;;19.52;72.16;101084.66;5053128;28;20444;-67
2023/07/26 07:10:03;;;;;;;3.70;3.50;;;19.30;99.90;;;19.44;71.68;101084.94;5053225;28;20053;-65
2023/07/26 07:12:31;;;;;;;2.70;2.60;;;19.20;99.90;;;19.18;71.68;101089.47;5053241;28;20118;-66
2023/07/26 07:15:00;;;;;;;2.92;2.83;;;18.90;99.90;;;19.24;72.20;101084.75;5053635;28;20051;-66
2023/07/26 07:17:29;;;;;;;3.45;3.33;;;18.90;99.90;;;19.33;72.45;101079.09;5053083;28;20052;-65
2023/07/26 07:19:59;;;;;;;2.80;2.70;;;19.00;99.90;;;19.44;72.26;101093.00;5035311;28;20052;-66
2023/07/26 07:22:28;;;;;;;3.17;3.07;;;19.00;99.90;;;19.56;72.02;101091.66;5052955;28;20441;-65
2023/07/26 07:24:56;;;;;;;2.92;2.83;;;19.20;99.90;;;19.73;71.55;101095.44;5052803;28;20295;-64
2023/07/26 07:27:25;;;;;;;3.67;3.47;;;19.30;99.90;;;19.62;70.20;101086.06;5064910;28;20049;-66
2023/07/26 07:29:54;;;;;;;3.50;3.30;;;19.30;99.90;;;19.57;70.30;101099.66;5053050;28;20045;-64
2023/07/26 07:32:23;;;;;;;3.38;3.08;;;19.30;99.90;;;19.57;70.39;101098.75;5052734;28;20052;-64
2023/07/26 07:34:51;;;;;;;3.13;3.03;;;19.30;99.90;;;19.79;70.11;101097.91;5052958;28;20495;-63
2023/07/26 07:37:22;;;;;;;3.08;2.97;;;19.40;99.90;;;20.00;67.13;101111.41;5052606;28;20076;-64
2023/07/26 07:39:50;;;;;;;3.63;3.42;;;19.60;99.90;;;19.72;66.44;101107.09;5052739;28;20041;-64
2023/07/26 07:42:19;;;;;;;2.83;2.72;;;19.40;99.90;;;19.55;67.52;101103.34;5052847;28;20092;-64
2023/07/26 07:44:47;;;;;;;3.45;3.17;;;19.30;99.90;;;19.61;67.81;101112.00;5052401;28;20053;-63
2023/07/26 07:47:15;;;;;;;2.85;2.75;;;19.30;99.90;;;19.78;68.18;101114.06;5052445;28;20045;-63
2023/07/26 07:49:46;;;;;;;3.15;3.05;;;19.40;99.90;;;19.94;68.45;101117.06;5048905;28;20045;-63
2023/07/26 07:52:15;;;;;;;3.25;3.15;;;19.60;99.90;;;20.00;68.47;101120.34;5053076;28;20045;-63
2023/07/26 07:54:44;;;;;;;2.90;2.80;;;19.70;99.90;;;19.89;67.44;101114.53;5052515;28;20045;-63
2023/07/26 07:57:14;;;;;;;3.63;3.42;;;19.60;99.90;;;20.06;68.19;101124.59;5052785;28;20041;-63
2023/07/26 07:59:42;;;;;;;2.80;2.70;;;19.70;99.90;;;20.20;67.25;101123.19;5052270;28;20040;-63
2023/07/26 08:02:11;;;;;;;3.33;3.22;;;19.90;99.90;;;20.38;65.97;101127.78;5052262;28;20491;-64
2023/07/26 08:04:39;;;;;;;2.63;2.53;;;20.00;99.90;;;20.20;64.59;101122.28;5052882;28;20506;-63
2023/07/26 08:07:08;;;;;;;3.03;2.92;;;19.90;99.90;;;20.22;66.22;101118.63;5052851;28;20045;-64
2023/07/26 08:09:36;;;;;;;3.00;2.90;;;19.90;99.90;;;20.23;66.67;101111.41;5052563;28;20110;-64
2023/07/26 08:12:07;;;;;;;2.50;2.40;;;20.00;99.90;;;20.31;65.85;101112.88;5049093;28;20053;-64
2023/07/26 08:14:35;;;;;;;3.35;3.15;;;20.00;99.90;;;20.27;65.26;101115.72;5052534;28;20040;-64
2023/07/26 08:17:04;;;;;;;3.20;3.10;;;20.00;99.90;;;20.41;64.50;101116.06;5053866;28;20479;-64
2023/07/26 08:19:33;;;;;;;3.33;2.72;;;20.10;99.90;;;20.49;63.93;101114.81;5056268;28;20051;-63
2023/07/26 08:22:01;;;;;;;3.13;3.03;;;20.20;99.90;;;20.50;63.22;101127.28;5056622;28;20044;-63
2023/07/26 08:24:30;;;;;;;3.40;3.20;;;20.20;99.90;;;20.47;62.85;101131.94;5056811;28;20049;-64
2023/07/26 08:27:00;;;;;;;3.42;3.22;;;20.20;99.90;;;20.60;63.63;101133.16;5056446;28;20079;-64
2023/07/26 08:29:29;;;;;;;2.92;2.83;;;20.30;99.90;;;20.49;63.44;101141.69;5056153;28;20166;-63
2023/07/26 08:31:58;;;;;;;3.10;2.90;;;20.20;99.90;;;20.59;63.90;101142.19;5052402;28;20445;-63
2023/07/26 08:34:26;;;;;;;2.80;2.70;;;20.30;99.90;;;20.84;62.99;101128.59;5056041;28;20460;-63
2023/07/26 08:36:55;;;;;;;2.80;2.70;;;20.50;99.90;;;20.71;63.20;101140.81;5056390;28;20123;-64
2023/07/26 08:39:23;;;;;;;3.60;3.30;;;20.40;99.90;;;20.77;62.44;101143.25;5056034;28;20072;-64
2023/07/26 08:42:03;;;;;;;3.30;3.13;;;20.40;99.90;;;20.71;59.29;101135.44;5056097;28;20055;-64
2023/07/26 08:44:34;;;;;;;3.13;2.92;;;20.40;99.90;;;20.72;59.61;101129.09;5055872;28;20088;-64
2023/07/26 08:47:06;;;;;;;2.78;2.67;;;20.40;99.90;;;20.91;61.52;101143.50;5052910;28;20037;-64
2023/07/26 08:49:34;;;;;;;2.70;2.60;;;20.60;99.90;;;20.26;60.31;101052.19;5055853;28;20041;-64
2023/07/26 08:52:04;;;;;;;3.20;3.00;;;20.50;99.90;;;20.60;60.86;101122.41;5055782;28;20075;-64
2023/07/26 08:54:33;;;;;;;2.77;2.67;;;20.40;99.90;;;20.63;60.83;101141.97;5055977;28;20060;-64
2023/07/26 08:57:02;;;;;;;2.67;2.58;;;20.40;99.90;;;20.58;61.09;101141.31;5056248;28;20624;-65
2023/07/26 08:59:33;;;;;;;2.85;2.75;;;20.30;99.90;;;20.48;61.79;101139.91;5055804;28;20060;-63
2023/07/26 09:02:02;;;;;;;3.00;2.90;;;20.20;99.90;;;20.46;61.69;101144.47;5055519;28;20045;-63
2023/07/26 09:04:33;;;;;;;3.22;3.03;;;20.20;99.90;;;20.49;59.97;101144.38;5052186;28;20123;-63
2023/07/26 09:07:02;;;;;;;2.50;2.40;;;20.20;99.90;;;20.69;59.22;101143.56;5055639;28;20091;-63
2023/07/26 09:09:31;;;;;;;4.20;3.00;;;20.30;99.90;;;20.85;60.14;101143.81;5055752;28;20433;-63
2023/07/26 09:12:00;;;;;;;3.00;2.90;;;20.50;99.90;;;20.60;57.88;101117.03;5055351;28;20132;-63
2023/07/26 09:14:30;;;;;;;3.20;3.10;;;20.50;99.90;;;21.16;58.82;101147.81;5055237;28;20127;-64
2023/07/26 09:17:03;;;;;;;2.58;2.47;;;20.80;99.90;;;21.47;58.15;101134.75;5055200;28;20045;-64
2023/07/26 09:19:35;;;;;;;2.70;2.60;;;21.20;99.90;;;21.44;57.76;101139.41;5055483;28;20049;-64
2023/07/26 09:22:06;;;;;;;3.10;2.97;;;21.20;99.90;;;21.25;57.29;101149.25;5051910;28;20048;-63
2023/07/26 09:24:36;;;;;;;3.00;2.80;;;21.00;99.90;;;21.28;57.15;101149.97;5055511;28;20057;-64
2023/07/26 09:27:08;;;;;;;2.90;2.80;;;21.00;99.90;;;21.44;58.67;101142.09;5055479;28;20518;-63
2023/07/26 09:29:38;;;;;;;2.90;2.80;;;21.00;99.90;;;21.43;59.37;101122.38;5054387;28;20045;-63
2023/07/26 09:32:09;;;;;;;2.88;2.75;;;21.20;99.90;;;21.19;57.97;101146.81;5055349;28;20490;-63
2023/07/26 09:34:40;;;;;;;3.03;2.92;;;20.90;99.90;;;21.20;58.05;101151.25;5051298;28;20052;-63
2023/07/26 09:37:21;;;;;;;2.78;2.67;;;20.80;99.90;;;20.96;56.97;101146.91;5055273;28;20098;-63
2023/07/26 09:39:50;;;;;;;3.70;3.50;;;20.70;99.90;;;20.82;58.41;101135.84;5055166;28;20049;-63
2023/07/26 09:42:20;;;;;;;3.10;2.95;;;20.50;99.90;;;21.02;57.79;101154.75;5055105;28;20084;-63
2023/07/26 09:44:48;;;;;;;3.90;3.20;;;20.60;99.90;;;21.07;57.20;101163.47;5050834;28;20053;-63
2023/07/26 09:47:33;;;;;;;2.90;2.80;;;20.80;99.90;;;21.17;56.56;101160.34;5055325;28;20095;-63
2023/07/26 09:50:08;;;;;;;3.30;3.05;;;20.80;99.90;;;21.05;56.40;101158.16;5054701;28;20044;-63
2023/07/26 09:52:40;;;;;;;3.17;3.08;;;20.80;99.90;;;20.69;57.61;101058.38;5051348;28;20481;-63
2023/07/26 09:55:09;;;;;;;2.90;2.80;;;20.90;99.90;;;21.61;57.13;101160.19;5054507;28;20580;-63
2023/07/26 09:57:49;;;;;;;2.40;2.30;;;21.30;99.90;;;21.99;56.67;101143.19;5054592;28;20041;-63
2023/07/26 10:00:17;;;;;;;3.33;3.03;;;21.70;99.90;;;22.26;54.84;101161.59;5054977;28;20051;-63
2023/07/26 10:02:56;;;;;;;2.70;2.60;;;22.00;99.90;;;22.10;54.53;101146.25;5054246;28;20372;-63
2023/07/26 10:05:26;;;;;;;2.78;2.67;;;22.00;99.90;;;22.30;55.29;101133.53;5053266;28;20057;-63
2023/07/26 10:07:56;;;;;;;;;;;22.20;99.90;;;22.69;56.97;101157.72;5052821;28;20049;-63
2023/07/26 10:10:29;;;;;;;2.30;2.20;;;22.40;99.90;;;22.47;54.92;101166.91;5054234;28;20102;-63
2023/07/26 10:12:59;;;;;;;2.85;2.65;;;22.30;99.90;;;22.34;54.03;101167.50;5050158;28;20041;-63
2023/07/26 10:15:30;;;;;;;2.72;2.63;;;22.10;99.90;;;22.05;53.89;101164.41;5054113;28;20052;-64
2023/07/26 10:18:00;;;;;;;2.50;2.40;;;21.80;99.90;;;22.28;54.67;101169.59;5053977;28;20056;-63
2023/07/26 10:20:29;;;;;;;;;;;21.90;99.90;;;22.08;53.99;101162.47;5054447;28;20250;-63
2023/07/26 10:23:05;;;;;;;3.90;3.60;;;21.80;99.90;;;22.52;53.97;101148.66;5053731;28;19920;-63